createdAt,value
2018-12-09T00:00:18.294Z,984.95
2018-12-09T00:01:18.303Z,984.74
2018-12-09T00:02:18.272Z,984.71
2018-12-09T00:03:18.261Z,984.71
2018-12-09T00:04:18.251Z,984.68
2018-12-09T00:05:18.241Z,984.79
2018-12-09T00:06:18.283Z,984.66
2018-12-09T00:07:18.252Z,984.69
2018-12-09T00:08:18.211Z,984.73
2018-12-09T00:09:18.229Z,984.72
2018-12-09T00:10:18.215Z,984.59
2018-12-09T00:11:18.228Z,984.66
2018-12-09T00:12:18.162Z,984.71
2018-12-09T00:13:18.164Z,984.71
2018-12-09T00:14:18.144Z,984.69
2018-12-09T00:15:18.141Z,984.75
2018-12-09T00:16:18.123Z,984.80
2018-12-09T00:17:18.157Z,984.79
2018-12-09T00:18:18.113Z,984.73
2018-12-09T00:19:18.115Z,984.69
2018-12-09T00:20:18.081Z,984.62
2018-12-09T00:21:18.079Z,984.64
2018-12-09T00:22:18.095Z,984.70
2018-12-09T00:23:18.049Z,984.68
2018-12-09T00:24:18.049Z,984.68
2018-12-09T00:25:18.052Z,984.62
2018-12-09T00:26:18.021Z,984.69
2018-12-09T00:27:18.071Z,984.71
2018-12-09T00:28:17.997Z,984.82
2018-12-09T00:29:17.988Z,984.88
2018-12-09T00:30:17.979Z,984.87
2018-12-09T00:31:17.971Z,984.81
2018-12-09T00:32:17.960Z,984.90
2018-12-09T00:33:17.980Z,984.82
2018-12-09T00:34:17.937Z,984.67
2018-12-09T00:35:17.925Z,984.55
2018-12-09T00:36:17.920Z,984.60
2018-12-09T00:37:17.907Z,984.61
2018-12-09T00:38:17.926Z,984.50
2018-12-09T00:39:17.892Z,984.57
2018-12-09T00:40:17.879Z,984.56
2018-12-09T00:41:17.860Z,984.48
2018-12-09T00:42:17.862Z,984.62
2018-12-09T00:43:17.863Z,984.41
2018-12-09T00:44:17.832Z,984.49
2018-12-09T00:45:17.830Z,984.59
2018-12-09T00:46:17.806Z,984.61
2018-12-09T00:47:17.795Z,984.60
2018-12-09T00:48:17.817Z,984.61
2018-12-09T00:49:17.778Z,984.60
2018-12-09T00:50:17.763Z,984.62
2018-12-09T00:51:17.774Z,984.66
2018-12-09T00:52:17.753Z,984.56
2018-12-09T00:53:17.770Z,984.67
2018-12-09T00:54:17.731Z,984.63
2018-12-09T00:55:17.931Z,984.57
2018-12-09T00:56:17.714Z,984.60
2018-12-09T00:57:17.970Z,984.58
2018-12-09T00:58:17.681Z,984.55
2018-12-09T00:59:17.694Z,984.64
2018-12-09T01:00:17.669Z,984.57
2018-12-09T01:01:17.651Z,984.45
2018-12-09T01:02:17.643Z,984.53
2018-12-09T01:03:17.629Z,984.55
2018-12-09T01:04:17.644Z,984.68
2018-12-09T01:05:17.619Z,984.52
2018-12-09T01:06:17.598Z,984.54
2018-12-09T01:07:17.637Z,984.48
2018-12-09T01:08:17.581Z,984.56
2018-12-09T01:09:17.592Z,984.48
2018-12-09T01:10:17.565Z,984.55
2018-12-09T01:11:17.547Z,984.44
2018-12-09T01:12:17.539Z,984.43
2018-12-09T01:13:17.540Z,984.63
2018-12-09T01:14:17.540Z,984.55
2018-12-09T01:15:17.509Z,984.55
2018-12-09T01:16:17.494Z,984.56
2018-12-09T01:17:17.487Z,984.54
2018-12-09T01:18:17.482Z,984.54
2018-12-09T01:19:17.501Z,984.57
2018-12-09T01:20:17.465Z,984.55
2018-12-09T01:21:17.447Z,984.63
2018-12-09T01:22:17.443Z,984.59
2018-12-09T01:23:17.449Z,984.60
2018-12-09T01:24:17.413Z,984.62
2018-12-09T01:25:17.425Z,984.59
2018-12-09T01:26:17.389Z,984.63
2018-12-09T01:27:17.384Z,984.68
2018-12-09T01:28:17.371Z,984.63
2018-12-09T01:29:17.395Z,984.61
2018-12-09T01:30:17.474Z,984.74
2018-12-09T01:31:17.339Z,984.69
2018-12-09T01:32:17.326Z,984.80
2018-12-09T01:33:17.320Z,984.73
2018-12-09T01:34:17.339Z,984.65
2018-12-09T01:35:17.301Z,984.66
2018-12-09T01:36:17.297Z,984.72
2018-12-09T01:37:17.279Z,984.73
2018-12-09T01:38:17.263Z,984.77
2018-12-09T01:39:17.291Z,984.87
2018-12-09T01:40:17.277Z,984.87
2018-12-09T01:41:17.255Z,984.77
2018-12-09T01:42:17.220Z,984.82
2018-12-09T01:43:17.223Z,984.90
2018-12-09T01:44:17.204Z,984.79
2018-12-09T01:45:17.233Z,984.77
2018-12-09T01:46:17.189Z,984.88
2018-12-09T01:47:17.182Z,984.80
2018-12-09T01:48:17.169Z,984.81
2018-12-09T01:49:17.153Z,984.86
2018-12-09T01:50:17.190Z,984.85
2018-12-09T01:51:17.134Z,984.83
2018-12-09T01:52:17.117Z,984.86
2018-12-09T01:53:17.107Z,984.88
2018-12-09T01:54:17.107Z,984.96
2018-12-09T01:55:17.114Z,984.90
2018-12-09T01:56:17.075Z,984.83
2018-12-09T01:57:17.070Z,984.93
2018-12-09T01:58:17.064Z,984.84
2018-12-09T01:59:17.047Z,984.93
2018-12-09T02:00:17.068Z,984.83
2018-12-09T02:01:17.028Z,984.81
2018-12-09T02:02:17.013Z,984.83
2018-12-09T02:03:17.017Z,984.91
2018-12-09T02:04:16.995Z,984.92
2018-12-09T02:05:17.087Z,984.88
2018-12-09T02:06:16.984Z,984.87
2018-12-09T02:07:16.962Z,984.93
2018-12-09T02:08:16.952Z,984.99
2018-12-09T02:09:16.947Z,984.99
2018-12-09T02:10:16.993Z,984.97
2018-12-09T02:11:16.926Z,984.96
2018-12-09T02:12:16.969Z,984.99
2018-12-09T02:13:16.921Z,984.97
2018-12-09T02:14:16.889Z,985.10
2018-12-09T02:15:16.912Z,985.05
2018-12-09T02:16:16.897Z,985.02
2018-12-09T02:17:16.862Z,985.07
2018-12-09T02:18:16.853Z,985.02
2018-12-09T02:19:16.851Z,985.10
2018-12-09T02:20:16.838Z,985.07
2018-12-09T02:21:16.876Z,985.16
2018-12-09T02:22:16.814Z,985.25
2018-12-09T02:23:16.799Z,985.13
2018-12-09T02:24:16.798Z,985.17
2018-12-09T02:25:16.778Z,985.10
2018-12-09T02:26:16.768Z,985.19
2018-12-09T02:27:16.878Z,985.16
2018-12-09T02:28:16.747Z,985.14
2018-12-09T02:29:16.738Z,985.17
2018-12-09T02:30:16.740Z,985.15
2018-12-09T02:31:16.719Z,985.20
2018-12-09T02:32:16.737Z,985.23
2018-12-09T02:33:16.703Z,985.21
2018-12-09T02:34:16.689Z,985.25
2018-12-09T02:35:16.679Z,985.42
2018-12-09T02:36:16.680Z,985.27
2018-12-09T02:37:16.700Z,985.24
2018-12-09T02:38:16.646Z,985.29
2018-12-09T02:39:16.658Z,985.32
2018-12-09T02:40:16.638Z,985.27
2018-12-09T02:41:16.628Z,985.36
2018-12-09T02:42:16.630Z,985.31
2018-12-09T02:43:16.620Z,985.31
2018-12-09T02:44:16.589Z,985.31
2018-12-09T02:45:16.580Z,985.28
2018-12-09T02:46:16.571Z,985.33
2018-12-09T02:47:16.583Z,985.31
2018-12-09T02:48:16.599Z,985.30
2018-12-09T02:49:16.545Z,985.30
2018-12-09T02:50:16.528Z,985.33
2018-12-09T02:51:16.623Z,985.29
2018-12-09T02:52:16.533Z,985.22
2018-12-09T02:53:16.548Z,985.26
2018-12-09T02:54:16.490Z,985.26
2018-12-09T02:55:16.477Z,985.34
2018-12-09T02:56:16.468Z,985.34
2018-12-09T02:57:16.458Z,985.28
2018-12-09T02:58:16.468Z,985.37
2018-12-09T02:59:16.439Z,985.31
2018-12-09T03:00:16.425Z,985.31
2018-12-09T03:01:16.416Z,985.29
2018-12-09T03:02:16.403Z,985.31
2018-12-09T03:03:16.417Z,985.26
2018-12-09T03:04:16.389Z,985.32
2018-12-09T03:05:16.374Z,985.27
2018-12-09T03:06:16.368Z,985.39
2018-12-09T03:07:16.354Z,985.29
2018-12-09T03:08:16.389Z,985.30
2018-12-09T03:09:16.446Z,985.31
2018-12-09T03:10:16.325Z,985.27
2018-12-09T03:11:16.316Z,985.48
2018-12-09T03:12:16.306Z,985.30
2018-12-09T03:13:16.297Z,985.36
2018-12-09T03:14:16.316Z,985.23
2018-12-09T03:15:16.274Z,985.22
2018-12-09T03:16:16.278Z,985.37
2018-12-09T03:17:16.265Z,985.28
2018-12-09T03:18:16.293Z,985.27
2018-12-09T03:19:16.243Z,985.37
2018-12-09T03:20:16.223Z,985.51
2018-12-09T03:21:16.216Z,985.30
2018-12-09T03:22:16.204Z,985.39
2018-12-09T03:23:16.225Z,985.40
2018-12-09T03:24:16.335Z,985.44
2018-12-09T03:25:16.180Z,985.36
2018-12-09T03:26:16.168Z,985.40
2018-12-09T03:27:16.156Z,985.38
2018-12-09T03:28:16.145Z,985.33
2018-12-09T03:29:16.162Z,985.34
2018-12-09T03:30:16.227Z,985.41
2018-12-09T03:31:16.116Z,985.30
2018-12-09T03:32:16.107Z,985.32
2018-12-09T03:33:16.094Z,985.43
2018-12-09T03:34:16.130Z,985.41
2018-12-09T03:35:16.081Z,985.44
2018-12-09T03:36:16.061Z,985.44
2018-12-09T03:37:16.056Z,985.45
2018-12-09T03:38:16.041Z,985.39
2018-12-09T03:39:16.053Z,985.45
2018-12-09T03:40:16.022Z,985.52
2018-12-09T03:41:16.027Z,985.48
2018-12-09T03:42:16.003Z,985.52
2018-12-09T03:43:15.988Z,985.47
2018-12-09T03:44:16.013Z,985.40
2018-12-09T03:45:15.972Z,985.56
2018-12-09T03:46:15.995Z,985.62
2018-12-09T03:47:15.959Z,985.61
2018-12-09T03:48:15.943Z,985.54
2018-12-09T03:49:15.934Z,985.64
2018-12-09T03:50:15.941Z,985.61
2018-12-09T03:51:15.935Z,985.70
2018-12-09T03:52:15.902Z,985.67
2018-12-09T03:53:15.889Z,985.71
2018-12-09T03:54:15.883Z,985.68
2018-12-09T03:55:15.884Z,985.64
2018-12-09T03:56:15.881Z,985.62
2018-12-09T03:57:15.851Z,985.64
2018-12-09T03:58:15.843Z,985.60
2018-12-09T03:59:15.833Z,985.49
2018-12-09T04:00:15.847Z,985.60
2018-12-09T04:01:15.801Z,985.52
2018-12-09T04:02:15.799Z,985.54
2018-12-09T04:03:15.781Z,985.52
2018-12-09T04:04:15.784Z,985.57
2018-12-09T04:05:15.796Z,985.53
2018-12-09T04:06:15.753Z,985.50
2018-12-09T04:07:15.740Z,985.52
2018-12-09T04:08:15.741Z,985.65
2018-12-09T04:09:15.722Z,985.58
2018-12-09T04:10:15.747Z,985.59
2018-12-09T04:11:15.716Z,985.70
2018-12-09T04:12:15.809Z,985.67
2018-12-09T04:13:15.680Z,985.70
2018-12-09T04:14:15.667Z,985.71
2018-12-09T04:15:15.679Z,985.70
2018-12-09T04:16:15.683Z,985.62
2018-12-09T04:17:15.650Z,985.70
2018-12-09T04:18:15.623Z,985.68
2018-12-09T04:19:15.612Z,985.63
2018-12-09T04:20:15.603Z,985.66
2018-12-09T04:21:15.617Z,985.64
2018-12-09T04:22:15.588Z,985.63
2018-12-09T04:23:15.578Z,985.48
2018-12-09T04:24:15.558Z,985.51
2018-12-09T04:25:15.546Z,985.51
2018-12-09T04:26:15.567Z,985.65
2018-12-09T04:27:15.530Z,985.68
2018-12-09T04:28:15.520Z,985.66
2018-12-09T04:29:15.505Z,985.73
2018-12-09T04:30:15.499Z,985.62
2018-12-09T04:31:15.520Z,985.74
2018-12-09T04:32:15.476Z,985.62
2018-12-09T04:33:15.465Z,985.74
2018-12-09T04:34:15.471Z,985.76
2018-12-09T04:35:15.442Z,985.75
2018-12-09T04:36:15.481Z,985.76
2018-12-09T04:37:15.420Z,985.75
2018-12-09T04:38:15.421Z,985.66
2018-12-09T04:39:15.397Z,985.71
2018-12-09T04:40:15.385Z,985.75
2018-12-09T04:41:15.372Z,985.74
2018-12-09T04:42:15.395Z,985.74
2018-12-09T04:43:15.356Z,985.73
2018-12-09T04:44:15.345Z,985.77
2018-12-09T04:45:15.386Z,985.64
2018-12-09T04:46:15.323Z,985.76
2018-12-09T04:47:15.358Z,985.78
2018-12-09T04:48:15.305Z,985.82
2018-12-09T04:49:15.289Z,985.82
2018-12-09T04:50:15.282Z,985.88
2018-12-09T04:51:15.266Z,985.88
2018-12-09T04:52:15.377Z,985.83
2018-12-09T04:53:15.246Z,985.84
2018-12-09T04:54:15.230Z,985.84
2018-12-09T04:55:15.240Z,985.82
2018-12-09T04:56:15.212Z,985.73
2018-12-09T04:57:15.204Z,985.86
2018-12-09T04:58:15.216Z,985.91
2018-12-09T04:59:15.177Z,985.93
2018-12-09T05:00:15.386Z,985.90
2018-12-09T05:01:15.160Z,985.93
2018-12-09T05:02:15.153Z,985.86
2018-12-09T05:03:15.379Z,985.93
2018-12-09T05:04:15.168Z,985.84
2018-12-09T05:05:15.115Z,985.94
2018-12-09T05:06:15.107Z,985.97
2018-12-09T05:07:15.098Z,986.00
2018-12-09T05:08:15.119Z,986.06
2018-12-09T05:09:15.080Z,986.05
2018-12-09T05:10:15.068Z,985.95
2018-12-09T05:11:15.053Z,986.07
2018-12-09T05:12:15.042Z,985.98
2018-12-09T05:13:15.059Z,985.98
2018-12-09T05:14:15.028Z,985.98
2018-12-09T05:15:15.015Z,986.09
2018-12-09T05:16:14.997Z,986.06
2018-12-09T05:17:14.990Z,986.10
2018-12-09T05:18:15.012Z,986.03
2018-12-09T05:19:14.989Z,986.13
2018-12-09T05:20:14.958Z,986.08
2018-12-09T05:21:14.943Z,986.12
2018-12-09T05:22:14.933Z,986.07
2018-12-09T05:23:14.947Z,986.15
2018-12-09T05:24:14.948Z,986.13
2018-12-09T05:25:14.905Z,986.13
2018-12-09T05:26:14.889Z,986.12
2018-12-09T05:27:14.891Z,986.21
2018-12-09T05:28:14.869Z,986.14
2018-12-09T05:29:14.889Z,986.16
2018-12-09T05:30:14.853Z,986.22
2018-12-09T05:31:14.834Z,986.19
2018-12-09T05:32:14.823Z,986.17
2018-12-09T05:33:14.814Z,986.21
2018-12-09T05:34:14.832Z,986.21
2018-12-09T05:35:14.798Z,986.26
2018-12-09T05:36:14.791Z,986.17
2018-12-09T05:37:14.774Z,986.19
2018-12-09T05:38:14.788Z,986.19
2018-12-09T05:39:14.752Z,986.19
2018-12-09T05:40:14.765Z,986.18
2018-12-09T05:41:14.728Z,986.21
2018-12-09T05:42:14.787Z,986.19
2018-12-09T05:43:14.746Z,986.20
2018-12-09T05:44:14.702Z,986.28
2018-12-09T05:45:14.687Z,986.39
2018-12-09T05:46:14.672Z,986.30
2018-12-09T05:47:14.671Z,986.38
2018-12-09T05:48:14.665Z,986.28
2018-12-09T05:49:14.671Z,986.30
2018-12-09T05:50:14.665Z,986.33
2018-12-09T05:51:14.627Z,986.32
2018-12-09T05:52:14.616Z,986.34
2018-12-09T05:53:14.603Z,986.39
2018-12-09T05:54:14.590Z,986.39
2018-12-09T05:55:14.609Z,986.34
2018-12-09T05:56:14.572Z,986.37
2018-12-09T05:57:14.563Z,986.31
2018-12-09T05:58:14.553Z,986.30
2018-12-09T05:59:14.538Z,986.37
2018-12-09T06:00:14.554Z,986.40
2018-12-09T06:01:14.515Z,986.33
2018-12-09T06:02:14.519Z,986.45
2018-12-09T06:03:14.501Z,986.44
2018-12-09T06:04:14.485Z,986.41
2018-12-09T06:05:14.514Z,986.42
2018-12-09T06:06:14.529Z,986.50
2018-12-09T06:07:14.458Z,986.53
2018-12-09T06:08:14.447Z,986.42
2018-12-09T06:09:14.439Z,986.56
2018-12-09T06:10:14.454Z,986.47
2018-12-09T06:11:14.412Z,986.51
2018-12-09T06:12:14.406Z,986.50
2018-12-09T06:13:14.390Z,986.52
2018-12-09T06:14:14.379Z,986.52
2018-12-09T06:15:14.375Z,986.52
2018-12-09T06:16:14.405Z,986.52
2018-12-09T06:17:14.355Z,986.60
2018-12-09T06:18:14.345Z,986.58
2018-12-09T06:19:14.341Z,986.56
2018-12-09T06:20:14.349Z,986.53
2018-12-09T06:21:14.354Z,986.51
2018-12-09T06:22:14.296Z,986.56
2018-12-09T06:23:14.287Z,986.57
2018-12-09T06:24:14.279Z,986.61
2018-12-09T06:25:14.281Z,986.55
2018-12-09T06:26:14.280Z,986.66
2018-12-09T06:27:14.248Z,986.64
2018-12-09T06:28:14.232Z,986.65
2018-12-09T06:29:14.224Z,986.71
2018-12-09T06:30:14.214Z,986.72
2018-12-09T06:31:14.250Z,986.69
2018-12-09T06:32:14.195Z,986.72
2018-12-09T06:33:14.186Z,986.76
2018-12-09T06:34:14.172Z,986.76
2018-12-09T06:35:14.182Z,986.72
2018-12-09T06:36:14.179Z,986.75
2018-12-09T06:37:14.140Z,986.64
2018-12-09T06:38:14.139Z,986.65
2018-12-09T06:39:14.125Z,986.76
2018-12-09T06:40:14.109Z,986.73
2018-12-09T06:41:14.118Z,986.78
2018-12-09T06:42:14.119Z,986.71
2018-12-09T06:43:14.077Z,986.68
2018-12-09T06:44:14.066Z,986.70
2018-12-09T06:45:14.054Z,986.70
2018-12-09T06:46:14.044Z,986.70
2018-12-09T06:47:14.076Z,986.77
2018-12-09T06:48:14.041Z,986.77
2018-12-09T06:49:14.014Z,986.71
2018-12-09T06:50:14.005Z,986.68
2018-12-09T06:51:13.996Z,986.80
2018-12-09T06:52:13.981Z,986.78
2018-12-09T06:53:14.000Z,986.81
2018-12-09T06:54:13.958Z,986.84
2018-12-09T06:55:13.957Z,986.77
2018-12-09T06:56:13.961Z,986.81
2018-12-09T06:57:13.955Z,986.87
2018-12-09T06:58:13.980Z,986.93
2018-12-09T06:59:13.907Z,986.94
2018-12-09T07:00:13.898Z,986.91
2018-12-09T07:01:13.932Z,986.92
2018-12-09T07:02:13.872Z,986.96
2018-12-09T07:03:13.889Z,986.90
2018-12-09T07:04:13.854Z,986.95
2018-12-09T07:05:13.837Z,986.97
2018-12-09T07:06:13.829Z,986.97
2018-12-09T07:07:13.825Z,987.00
2018-12-09T07:08:13.929Z,986.96
2018-12-09T07:09:13.815Z,986.97
2018-12-09T07:10:13.810Z,987.00
2018-12-09T07:11:13.779Z,987.10
2018-12-09T07:12:13.769Z,987.05
2018-12-09T07:13:13.783Z,986.99
2018-12-09T07:14:13.747Z,987.14
2018-12-09T07:15:13.759Z,987.07
2018-12-09T07:16:13.718Z,987.10
2018-12-09T07:17:13.768Z,987.14
2018-12-09T07:18:13.728Z,987.16
2018-12-09T07:19:13.699Z,987.18
2018-12-09T07:20:13.700Z,987.20
2018-12-09T07:21:13.686Z,987.15
2018-12-09T07:22:13.666Z,987.21
2018-12-09T07:23:13.667Z,987.11
2018-12-09T07:24:13.644Z,987.22
2018-12-09T07:25:13.622Z,987.19
2018-12-09T07:26:13.624Z,987.29
2018-12-09T07:27:13.611Z,987.41
2018-12-09T07:28:13.638Z,987.38
2018-12-09T07:29:13.590Z,987.33
2018-12-09T07:30:13.576Z,987.31
2018-12-09T07:31:13.566Z,987.32
2018-12-09T07:32:13.569Z,987.40
2018-12-09T07:33:13.551Z,987.33
2018-12-09T07:34:13.586Z,987.29
2018-12-09T07:35:13.514Z,987.29
2018-12-09T07:36:13.530Z,987.26
2018-12-09T07:37:13.511Z,987.38
2018-12-09T07:38:13.513Z,987.33
2018-12-09T07:39:13.485Z,987.39
2018-12-09T07:40:13.466Z,987.38
2018-12-09T07:41:13.455Z,987.39
2018-12-09T07:42:13.462Z,987.44
2018-12-09T07:43:13.467Z,987.70
2018-12-09T07:44:13.600Z,987.67
2018-12-09T07:45:13.409Z,987.56
2018-12-09T07:46:15.194Z,987.79
2018-12-09T07:47:13.391Z,987.85
2018-12-09T07:48:13.409Z,987.68
2018-12-09T07:49:13.417Z,987.93
2018-12-09T07:50:13.436Z,987.79
2018-12-09T07:51:13.345Z,987.82
2018-12-09T07:52:13.345Z,987.86
2018-12-09T07:53:13.364Z,988.00
2018-12-09T07:54:13.319Z,988.05
2018-12-09T07:55:13.320Z,988.08
2018-12-09T07:56:13.323Z,987.96
2018-12-09T07:57:13.287Z,988.14
2018-12-09T07:58:13.273Z,988.11
2018-12-09T07:59:13.299Z,988.18
2018-12-09T08:00:13.250Z,988.24
2018-12-09T08:01:13.260Z,988.15
2018-12-09T08:02:13.230Z,988.27
2018-12-09T08:03:13.220Z,988.09
2018-12-09T08:04:13.206Z,988.30
2018-12-09T08:05:13.227Z,988.33
2018-12-09T08:06:13.216Z,988.41
2018-12-09T08:07:13.192Z,988.54
2018-12-09T08:08:13.171Z,988.62
2018-12-09T08:09:13.153Z,988.62
2018-12-09T08:10:13.174Z,988.59
2018-12-09T08:11:13.132Z,988.69
2018-12-09T08:12:13.127Z,988.84
2018-12-09T08:13:13.131Z,988.87
2018-12-09T08:14:13.104Z,988.79
2018-12-09T08:15:13.246Z,988.73
2018-12-09T08:16:13.077Z,988.92
2018-12-09T08:17:13.084Z,988.84
2018-12-09T08:18:13.073Z,988.87
2018-12-09T08:19:13.075Z,988.82
2018-12-09T08:20:13.089Z,988.86
2018-12-09T08:21:13.040Z,988.79
2018-12-09T08:22:13.021Z,988.78
2018-12-09T08:23:13.006Z,988.86
2018-12-09T08:24:12.996Z,988.89
2018-12-09T08:25:13.109Z,988.99
2018-12-09T08:26:13.011Z,988.97
2018-12-09T08:27:12.957Z,989.07
2018-12-09T08:28:12.955Z,988.87
2018-12-09T08:29:12.942Z,988.79
2018-12-09T08:30:12.953Z,988.82
2018-12-09T08:31:12.911Z,988.82
2018-12-09T08:32:12.958Z,988.94
2018-12-09T08:33:12.889Z,988.94
2018-12-09T08:34:12.889Z,988.88
2018-12-09T08:35:12.884Z,988.93
2018-12-09T08:36:12.861Z,988.93
2018-12-09T08:37:12.887Z,988.95
2018-12-09T08:38:12.835Z,988.98
2018-12-09T08:39:12.840Z,988.95
2018-12-09T08:40:12.817Z,989.00
2018-12-09T08:41:12.818Z,988.99
2018-12-09T08:42:12.830Z,989.04
2018-12-09T08:43:12.784Z,988.98
2018-12-09T08:44:12.783Z,989.02
2018-12-09T08:45:12.767Z,989.02
2018-12-09T08:46:12.751Z,989.00
2018-12-09T08:47:12.769Z,988.99
2018-12-09T08:48:12.731Z,988.99
2018-12-09T08:49:12.717Z,989.01
2018-12-09T08:50:12.723Z,988.96
2018-12-09T08:51:12.721Z,989.00
2018-12-09T08:52:12.707Z,989.06
2018-12-09T08:53:12.705Z,989.04
2018-12-09T08:54:12.667Z,989.09
2018-12-09T08:55:12.653Z,989.10
2018-12-09T08:56:12.639Z,989.15
2018-12-09T08:57:12.656Z,989.15
2018-12-09T08:58:12.635Z,989.12
2018-12-09T08:59:12.617Z,989.15
2018-12-09T09:00:12.597Z,989.16
2018-12-09T09:01:12.585Z,989.18
2018-12-09T09:02:12.602Z,989.24
2018-12-09T09:03:12.631Z,989.25
2018-12-09T09:04:12.592Z,989.29
2018-12-09T09:05:12.546Z,989.31
2018-12-09T09:06:12.526Z,989.36
2018-12-09T09:07:12.517Z,989.36
2018-12-09T09:08:12.554Z,989.34
2018-12-09T09:09:12.528Z,989.40
2018-12-09T09:10:12.495Z,989.44
2018-12-09T09:11:12.522Z,989.44
2018-12-09T09:12:12.468Z,989.40
2018-12-09T09:13:12.484Z,989.48
2018-12-09T09:14:12.439Z,989.49
2018-12-09T09:15:12.428Z,989.55
2018-12-09T09:16:12.433Z,989.55
2018-12-09T09:17:12.410Z,989.62
2018-12-09T09:18:12.435Z,989.66
2018-12-09T09:19:12.392Z,989.59
2018-12-09T09:20:12.402Z,989.65
2018-12-09T09:21:12.386Z,989.60
2018-12-09T09:22:12.393Z,989.63
2018-12-09T09:23:12.356Z,989.61
2018-12-09T09:24:12.354Z,989.64
2018-12-09T09:25:12.343Z,989.64
2018-12-09T09:26:12.322Z,989.72
2018-12-09T09:27:12.318Z,989.72
2018-12-09T09:28:12.289Z,989.81
2018-12-09T09:29:12.320Z,989.84
2018-12-09T09:30:12.301Z,989.77
2018-12-09T09:31:12.270Z,989.77
2018-12-09T09:32:12.257Z,989.81
2018-12-09T09:33:12.259Z,989.88
2018-12-09T09:34:12.255Z,989.86
2018-12-09T09:35:12.214Z,989.87
2018-12-09T09:36:12.196Z,989.85
2018-12-09T09:37:12.191Z,989.88
2018-12-09T09:38:12.182Z,989.91
2018-12-09T09:39:12.191Z,989.87
2018-12-09T09:40:12.277Z,989.84
2018-12-09T09:41:12.176Z,989.89
2018-12-09T09:42:12.133Z,989.84
2018-12-09T09:43:12.153Z,989.82
2018-12-09T09:44:12.150Z,989.86
2018-12-09T09:45:12.101Z,989.83
2018-12-09T09:46:12.119Z,989.96
2018-12-09T09:47:12.079Z,989.93
2018-12-09T09:48:12.069Z,989.97
2018-12-09T09:49:12.144Z,990.00
2018-12-09T09:50:12.291Z,990.01
2018-12-09T09:51:12.037Z,989.93
2018-12-09T09:52:12.027Z,990.05
2018-12-09T09:53:12.054Z,989.97
2018-12-09T09:54:12.003Z,989.94
2018-12-09T09:55:11.993Z,989.99
2018-12-09T09:56:12.010Z,990.03
2018-12-09T09:57:11.969Z,989.98
2018-12-09T09:58:11.974Z,990.09
2018-12-09T09:59:11.947Z,990.04
2018-12-09T10:00:11.973Z,990.03
2018-12-09T10:01:11.955Z,990.04
2018-12-09T10:02:11.926Z,990.05
2018-12-09T10:03:11.933Z,990.02
2018-12-09T10:04:11.925Z,990.08
2018-12-09T10:05:11.919Z,990.07
2018-12-09T10:06:11.888Z,990.07
2018-12-09T10:07:11.883Z,990.03
2018-12-09T10:08:11.857Z,990.10
2018-12-09T10:09:11.844Z,990.19
2018-12-09T10:10:11.833Z,990.18
2018-12-09T10:11:11.909Z,990.16
2018-12-09T10:12:11.810Z,990.15
2018-12-09T10:13:11.802Z,990.17
2018-12-09T10:14:11.793Z,990.18
2018-12-09T10:15:11.864Z,990.21
2018-12-09T10:16:11.899Z,990.23
2018-12-09T10:17:11.765Z,990.21
2018-12-09T10:18:11.745Z,990.30
2018-12-09T10:19:11.744Z,990.33
2018-12-09T10:20:11.730Z,990.33
2018-12-09T10:21:11.716Z,990.32
2018-12-09T10:22:11.724Z,990.31
2018-12-09T10:23:11.688Z,990.36
2018-12-09T10:24:11.682Z,990.33
2018-12-09T10:25:11.667Z,990.38
2018-12-09T10:26:11.689Z,990.35
2018-12-09T10:27:11.674Z,990.37
2018-12-09T10:28:11.640Z,990.36
2018-12-09T10:29:11.639Z,990.37
2018-12-09T10:30:11.617Z,990.42
2018-12-09T10:31:11.634Z,990.44
2018-12-09T10:32:11.628Z,990.46
2018-12-09T10:33:11.585Z,990.48
2018-12-09T10:34:11.585Z,990.59
2018-12-09T10:35:11.563Z,990.56
2018-12-09T10:36:11.550Z,990.48
2018-12-09T10:37:11.573Z,990.51
2018-12-09T10:38:11.526Z,990.49
2018-12-09T10:39:11.518Z,990.53
2018-12-09T10:40:11.511Z,990.55
2018-12-09T10:41:11.508Z,990.58
2018-12-09T10:42:11.506Z,990.58
2018-12-09T10:43:11.504Z,990.58
2018-12-09T10:44:11.462Z,990.57
2018-12-09T10:45:11.455Z,990.62
2018-12-09T10:46:11.443Z,990.65
2018-12-09T10:47:11.432Z,990.67
2018-12-09T10:48:11.445Z,990.65
2018-12-09T10:49:11.413Z,990.70
2018-12-09T10:50:11.407Z,990.74
2018-12-09T10:51:11.394Z,990.64
2018-12-09T10:52:11.378Z,990.65
2018-12-09T10:53:11.401Z,990.68
2018-12-09T10:54:11.358Z,990.72
2018-12-09T10:55:11.347Z,990.70
2018-12-09T10:56:11.336Z,990.74
2018-12-09T10:57:11.329Z,990.73
2018-12-09T10:58:11.354Z,990.78
2018-12-09T10:59:11.306Z,990.80
2018-12-09T11:00:11.295Z,990.86
2018-12-09T11:01:11.292Z,990.79
2018-12-09T11:02:11.271Z,990.80
2018-12-09T11:03:11.266Z,990.80
2018-12-09T11:04:11.292Z,990.78
2018-12-09T11:05:11.242Z,990.79
2018-12-09T11:06:11.306Z,990.74
2018-12-09T11:07:11.226Z,990.80
2018-12-09T11:08:11.240Z,990.82
2018-12-09T11:09:11.214Z,990.86
2018-12-09T11:10:11.188Z,990.78
2018-12-09T11:11:11.181Z,990.81
2018-12-09T11:12:11.167Z,990.79
2018-12-09T11:13:11.172Z,990.86
2018-12-09T11:14:11.210Z,990.83
2018-12-09T11:15:11.172Z,990.91
2018-12-09T11:16:11.127Z,990.94
2018-12-09T11:17:11.116Z,990.95
2018-12-09T11:18:11.107Z,990.96
2018-12-09T11:19:11.108Z,990.97
2018-12-09T11:20:11.103Z,991.00
2018-12-09T11:21:11.077Z,991.02
2018-12-09T11:22:11.059Z,990.98
2018-12-09T11:23:11.054Z,991.00
2018-12-09T11:24:11.049Z,991.02
2018-12-09T11:25:11.061Z,990.99
2018-12-09T11:26:11.017Z,990.96
2018-12-09T11:27:11.004Z,991.00
2018-12-09T11:28:10.996Z,991.02
2018-12-09T11:29:10.986Z,991.02
2018-12-09T11:30:11.055Z,991.05
2018-12-09T11:31:11.091Z,991.08
2018-12-09T11:32:10.967Z,991.08
2018-12-09T11:33:10.945Z,991.11
2018-12-09T11:34:10.929Z,991.12
2018-12-09T11:35:10.955Z,991.13
2018-12-09T11:36:10.919Z,991.04
2018-12-09T11:37:10.912Z,991.08
2018-12-09T11:38:10.898Z,991.15
2018-12-09T11:39:10.882Z,991.17
2018-12-09T11:40:10.904Z,991.15
2018-12-09T11:41:10.861Z,991.17
2018-12-09T11:42:10.853Z,991.15
2018-12-09T11:43:10.836Z,991.15
2018-12-09T11:44:10.828Z,991.20
2018-12-09T11:45:10.813Z,991.20
2018-12-09T11:46:10.833Z,991.22
2018-12-09T11:47:10.787Z,991.21
2018-12-09T11:48:10.779Z,991.21
2018-12-09T11:49:10.778Z,991.27
2018-12-09T11:50:10.787Z,991.26
2018-12-09T11:51:10.772Z,991.30
2018-12-09T11:52:10.736Z,991.34
2018-12-09T11:53:10.732Z,991.27
2018-12-09T11:54:10.717Z,991.27
2018-12-09T11:55:10.706Z,991.32
2018-12-09T11:56:10.724Z,991.35
2018-12-09T11:57:10.681Z,991.32
2018-12-09T11:58:10.674Z,991.32
2018-12-09T11:59:11.981Z,991.32
2018-12-09T12:00:10.650Z,991.38
2018-12-09T12:01:10.673Z,991.34
2018-12-09T12:02:10.670Z,991.41
2018-12-09T12:03:10.655Z,991.43
2018-12-09T12:04:10.606Z,991.41
2018-12-09T12:05:10.606Z,991.47
2018-12-09T12:06:10.609Z,991.43
2018-12-09T12:07:10.631Z,991.45
2018-12-09T12:08:10.572Z,991.40
2018-12-09T12:09:10.559Z,991.42
2018-12-09T12:10:10.545Z,991.47
2018-12-09T12:11:10.542Z,991.52
2018-12-09T12:12:10.547Z,991.50
2018-12-09T12:13:10.541Z,991.53
2018-12-09T12:14:10.520Z,991.48
2018-12-09T12:15:10.489Z,991.52
2018-12-09T12:16:10.488Z,991.51
2018-12-09T12:17:10.499Z,991.57
2018-12-09T12:18:10.459Z,991.57
2018-12-09T12:19:10.446Z,991.61
2018-12-09T12:20:10.432Z,991.61
2018-12-09T12:22:11.565Z,991.63
2018-12-09T12:23:10.409Z,991.61
2018-12-09T12:24:10.424Z,991.59
2018-12-09T12:25:10.454Z,991.66
2018-12-09T12:26:10.380Z,991.66
2018-12-09T12:27:10.362Z,991.61
2018-12-09T12:28:10.369Z,991.62
2018-12-09T12:29:10.367Z,991.64